Time;durP1;ratioP1;P1;durP2;ratioP2;P2;SDS_P1;SDS_P2;PMS_P1;PMS_P2;Temp;Humidity;BMP_temperature;BMP_pressure;BME280_temperature;BME280_humidity;BME280_pressure;Samples;Min_cycle;Max_cycle;Signal;HPM_P1;HPM_P2
2023/09/14 00:02:44;;;;;;;6.78;3.00;;;;;;;15.95;100.00;102145.47;5042412;28;20129;-62
2023/09/14 00:05:32;;;;;;;8.55;3.08;;;;;;;16.00;100.00;102145.47;5032776;28;20045;-63
2023/09/14 00:08:21;;;;;;;6.38;3.15;;;;;;;16.05;100.00;102145.47;5049720;28;20123;-61
2023/09/14 00:11:11;;;;;;;8.27;3.83;;;;;;;16.10;100.00;102147.41;5052261;28;20049;-63
2023/09/14 00:13:59;;;;;;;9.85;3.03;;;;;;;16.09;100.00;102137.50;5050836;28;20068;-64
2023/09/14 00:16:47;;;;;;;7.75;3.17;;;;;;;16.03;100.00;102144.94;5052212;28;20497;-62
2023/09/14 00:19:35;;;;;;;9.30;3.78;;;;;;;16.06;100.00;102146.31;5052359;28;20052;-64
2023/09/14 00:22:23;;;;;;;10.45;3.25;;;;;;;16.02;100.00;102148.78;5046091;28;20045;-61
2023/09/14 00:25:11;;;;;;;10.40;3.33;;;;;;;16.05;100.00;102145.47;5053714;28;20150;-63
2023/09/14 00:27:59;;;;;;;8.38;3.33;;;;;;;16.09;100.00;102149.34;5052818;28;20061;-63
2023/09/14 00:30:51;;;;;;;9.18;3.22;;;;;;;16.12;100.00;102148.78;5038780;28;20069;-63
2023/09/14 00:33:39;;;;;;;7.63;3.33;;;;;;;16.10;100.00;102134.50;5050956;28;20049;-63
2023/09/14 00:36:27;;;;;;;8.85;3.47;;;;;;;16.10;100.00;102139.16;5053809;28;20088;-64
2023/09/14 00:39:15;;;;;;;8.43;2.95;;;;;;;16.08;100.00;102133.13;5050768;28;20093;-62
2023/09/14 00:42:04;;;;;;;7.80;3.20;;;;;;;16.05;100.00;102137.22;5030415;28;20662;-63
2023/09/14 00:44:51;;;;;;;7.43;3.03;;;;;;;16.00;100.00;102139.97;5017921;28;20054;-63
2023/09/14 00:47:44;;;;;;;9.05;3.25;;;;;;;15.91;100.00;102136.09;5033998;28;20060;-63
2023/09/14 00:50:33;;;;;;;6.85;3.05;;;;;;;15.83;100.00;102128.41;5052470;28;20043;-60
2023/09/14 00:53:21;;;;;;;9.40;3.17;;;;;;;15.82;100.00;102144.03;5021607;28;20038;-62
2023/09/14 00:56:10;;;;;;;9.68;3.20;;;;;;;15.82;100.00;102144.03;5032478;28;20073;-63
2023/09/14 00:58:58;;;;;;;8.43;2.90;;;;;;;15.75;100.00;102137.97;5049589;28;20413;-62
2023/09/14 01:01:47;;;;;;;7.85;3.05;;;;;;;15.66;100.00;102132.16;5051524;28;20052;-62
2023/09/14 01:04:35;;;;;;;8.77;3.45;;;;;;;15.58;100.00;102132.69;5051085;28;20110;-64
2023/09/14 01:07:23;;;;;;;10.15;3.50;;;;;;;15.51;100.00;102134.84;5051442;28;20049;-64
2023/09/14 01:10:12;;;;;;;9.77;3.63;;;;;;;15.46;100.00;102137.59;5031055;28;20103;-63
2023/09/14 01:13:00;;;;;;;9.63;3.58;;;;;;;15.45;100.00;102147.75;5032238;28;20042;-63
2023/09/14 01:15:51;;;;;;;9.52;3.60;;;;;;;15.52;100.00;102144.75;5017152;28;20061;-60
2023/09/14 01:18:44;;;;;;;8.13;3.33;;;;;;;15.58;100.00;102146.41;5024853;28;20488;-62
2023/09/14 01:21:48;;;;;;;8.82;3.00;;;;;;;15.59;100.00;102142.59;5043557;28;20505;-61
2023/09/14 01:24:54;;;;;;;10.55;3.58;;;;;;;15.65;100.00;102143.41;5033092;28;20068;-62
2023/09/14 01:27:43;;;;;;;9.15;3.63;;;;;;;15.73;100.00;102152.00;5018304;28;20062;-61
2023/09/14 01:30:31;;;;;;;9.05;3.28;;;;;;;15.75;100.00;102149.81;5050844;28;20053;-62
2023/09/14 01:33:21;;;;;;;5.88;3.00;;;;;;;15.75;100.00;102146.22;5052175;28;20096;-63
2023/09/14 01:36:33;;;;;;;10.35;3.80;;;;;;;15.72;100.00;102144.03;5038149;28;20045;-62
2023/09/14 01:39:22;;;;;;;9.82;3.65;;;;;;;15.71;100.00;102148.69;5046634;28;20045;-62
2023/09/14 01:42:10;;;;;;;10.07;3.70;;;;;;;15.71;100.00;102139.63;5019110;28;20050;-63
2023/09/14 01:44:58;;;;;;;10.40;3.58;;;;;;;15.67;100.00;102136.56;5018758;28;20146;-63
2023/09/14 01:47:46;;;;;;;7.28;3.58;;;;;;;15.66;100.00;102145.91;5036786;28;20048;-63
2023/09/14 01:50:34;;;;;;;9.30;3.45;;;;;;;15.63;100.00;102132.69;5049978;28;20057;-62
2023/09/14 01:53:22;;;;;;;14.38;3.60;;;;;;;15.59;100.00;102139.84;5034925;28;20120;-63
2023/09/14 01:56:10;;;;;;;9.77;3.85;;;;;;;15.57;100.00;102147.53;5033010;28;20092;-61
2023/09/14 01:58:59;;;;;;;7.95;3.00;;;;;;;15.60;100.00;102146.97;5024393;28;20537;-62
2023/09/14 02:01:47;;;;;;;13.13;3.85;;;;;;;15.62;100.00;102146.72;5032176;28;20057;-63
2023/09/14 02:04:35;;;;;;;10.38;3.78;;;;;;;15.66;100.00;102145.91;5020238;28;20049;-62
2023/09/14 02:07:24;;;;;;;6.13;3.30;;;;;;;15.63;100.00;102146.44;5042292;28;20056;-62
2023/09/14 02:10:12;;;;;;;8.77;3.28;;;;;;;15.62;100.00;102139.28;5021311;28;20056;-62
2023/09/14 02:13:00;;;;;;;9.85;3.30;;;;;;;15.60;100.00;102141.47;5020749;28;20042;-62
2023/09/14 02:15:48;;;;;;;7.97;3.40;;;;;;;15.57;100.00;102142.03;5040489;28;20045;-63
2023/09/14 02:18:36;;;;;;;7.60;3.15;;;;;;;15.55;100.00;102139.53;5053486;28;20054;-61
2023/09/14 02:21:24;;;;;;;7.65;3.20;;;;;;;15.53;100.00;102138.16;5037147;28;20091;-63
2023/09/14 02:24:12;;;;;;;8.32;3.35;;;;;;;15.51;100.00;102132.09;5041460;28;20455;-63
2023/09/14 02:27:00;;;;;;;9.50;3.63;;;;;;;15.46;100.00;102130.16;5056076;28;20080;-64
2023/09/14 02:29:51;;;;;;;6.35;2.75;;;;;;;15.44;100.00;102128.78;5042393;28;20037;-62
2023/09/14 02:32:39;;;;;;;7.38;3.00;;;;;;;15.40;100.00;102122.19;5038701;28;20049;-62
2023/09/14 02:35:27;;;;;;;8.40;3.20;;;;;;;15.37;100.00;102125.44;5054597;28;20053;-61
2023/09/14 02:38:15;;;;;;;6.30;3.05;;;;;;;15.29;100.00;102130.38;5040740;28;20052;-62
2023/09/14 02:41:03;;;;;;;8.38;3.13;;;;;;;15.30;100.00;102126.53;5055402;28;20052;-61
2023/09/14 02:43:51;;;;;;;9.00;3.20;;;;;;;15.32;100.00;102127.09;5052878;28;20516;-63
2023/09/14 02:46:39;;;;;;;7.28;2.90;;;;;;;15.30;100.00;102125.72;5023044;28;20510;-63
2023/09/14 02:49:27;;;;;;;6.95;3.15;;;;;;;15.26;100.00;102122.66;5019828;28;20042;-64
2023/09/14 02:52:15;;;;;;;8.50;3.33;;;;;;;15.20;100.00;102121.00;5034548;28;20524;-62
2023/09/14 02:55:03;;;;;;;6.88;2.97;;;;;;;15.16;100.00;102125.38;5033500;28;20121;-62
2023/09/14 02:57:51;;;;;;;7.30;3.00;;;;;;;15.17;100.00;102121.53;5053005;28;20128;-63
2023/09/14 03:00:39;;;;;;;8.38;3.25;;;;;;;15.15;100.00;102129.19;5040465;28;20056;-63
2023/09/14 03:03:30;;;;;;;9.50;3.33;;;;;;;15.10;100.00;102120.94;5040032;28;20044;-63
2023/09/14 03:06:18;;;;;;;7.28;3.10;;;;;;;15.06;100.00;102119.84;5041036;28;20060;-62
2023/09/14 03:09:06;;;;;;;10.18;3.45;;;;;;;15.01;100.00;102112.41;5033929;28;20046;-63
2023/09/14 03:11:55;;;;;;;7.10;2.88;;;;;;;14.96;100.00;102117.03;5040542;28;20577;-63
2023/09/14 03:14:43;;;;;;;7.03;2.70;;;;;;;14.90;100.00;102116.16;5023615;28;20053;-63
2023/09/14 03:17:31;;;;;;;9.95;3.25;;;;;;;14.90;100.00;102113.44;5027299;28;20524;-63
2023/09/14 03:20:19;;;;;;;8.43;3.15;;;;;;;14.89;100.00;102120.84;5053889;28;20036;-62
2023/09/14 03:23:07;;;;;;;7.78;3.50;;;;;;;14.91;100.00;102118.66;5020997;28;20545;-64
2023/09/14 03:25:56;;;;;;;7.28;3.25;;;;;;;14.88;100.00;102121.91;5019879;28;20050;-62
2023/09/14 03:28:46;;;;;;;6.70;3.10;;;;;;;14.84;100.00;102123.56;5026752;28;20076;-62
2023/09/14 03:31:36;;;;;;;8.43;3.28;;;;;;;14.82;100.00;102131.22;5040479;28;20049;-62
2023/09/14 03:34:25;;;;;;;10.30;3.95;;;;;;;14.81;100.00;102132.28;5030671;28;20089;-62
2023/09/14 03:37:13;;;;;;;7.55;3.15;;;;;;;14.82;100.00;102130.41;5022439;28;20053;-61
2023/09/14 03:40:01;;;;;;;9.05;3.38;;;;;;;14.90;100.00;102130.72;5040571;28;20041;-62
2023/09/14 03:42:50;;;;;;;7.95;3.13;;;;;;;14.93;100.00;102125.78;5055248;28;20045;-61
2023/09/14 03:45:38;;;;;;;8.98;2.90;;;;;;;14.95;100.00;102129.91;5040658;28;20059;-62
2023/09/14 03:48:26;;;;;;;8.23;3.13;;;;;;;14.98;100.00;102140.34;5027100;28;20118;-62
2023/09/14 03:51:14;;;;;;;9.40;3.50;;;;;;;14.96;100.00;102131.59;5045644;28;20172;-63
2023/09/14 03:54:02;;;;;;;8.85;3.63;;;;;;;14.91;100.00;102121.41;5051976;28;20130;-63
2023/09/14 03:56:50;;;;;;;9.80;3.50;;;;;;;14.81;100.00;102126.81;5038116;28;20499;-63
2023/09/14 03:59:38;;;;;;;12.07;3.78;;;;;;;14.76;100.00;102126.78;5035431;28;20504;-65
2023/09/14 04:02:26;;;;;;;10.30;3.67;;;;;;;14.66;100.00;102122.06;5037385;28;20037;-64
2023/09/14 04:05:17;;;;;;;9.98;3.60;;;;;;;14.59;100.00;102129.69;5052763;28;20616;-63
2023/09/14 04:08:07;;;;;;;7.57;3.40;;;;;;;14.53;100.00;102125.22;5017312;28;20042;-63
2023/09/14 04:10:55;;;;;;;9.32;3.53;;;;;;;14.51;100.00;102121.09;5024797;28;20041;-62
2023/09/14 04:13:44;;;;;;;8.77;3.25;;;;;;;14.54;100.00;102123.34;5026881;28;20037;-63
2023/09/14 04:16:31;;;;;;;7.45;3.33;;;;;;;14.61;100.00;102115.72;5035902;28;20033;-63
2023/09/14 04:19:20;;;;;;;10.23;3.40;;;;;;;14.71;100.00;102121.25;5033241;28;20520;-63
2023/09/14 04:22:08;;;;;;;12.02;3.80;;;;;;;14.68;100.00;102125.34;5019462;28;20049;-62
2023/09/14 04:24:56;;;;;;;10.82;3.40;;;;;;;14.60;100.00;102117.63;5034068;28;20109;-64
2023/09/14 04:27:44;;;;;;;14.27;4.25;;;;;;;14.52;100.00;102125.47;5032067;28;20057;-65
2023/09/14 04:30:32;;;;;;;8.45;3.42;;;;;;;14.47;100.00;102129.81;5033902;28;20409;-61
2023/09/14 04:33:20;;;;;;;10.90;3.60;;;;;;;14.46;100.00;102127.38;5033608;28;20064;-62
2023/09/14 04:36:08;;;;;;;11.85;3.75;;;;;;;14.43;100.00;102134.19;5034510;28;20424;-61
2023/09/14 04:39:04;;;;;;;7.15;3.17;;;;;;;14.47;100.00;102138.06;5022431;28;20140;-64
2023/09/14 04:41:52;;;;;;;10.82;3.75;;;;;;;14.44;100.00;102130.34;5017286;28;20128;-65
2023/09/14 04:44:41;;;;;;;9.98;3.70;;;;;;;14.38;100.00;102128.69;5026536;28;20065;-62
2023/09/14 04:47:29;;;;;;;9.80;3.58;;;;;;;14.36;100.00;102133.59;5035198;28;20076;-62
2023/09/14 04:50:19;;;;;;;10.68;4.03;;;;;;;14.39;100.00;102133.06;5037564;28;20057;-63
2023/09/14 04:53:07;;;;;;;11.27;3.65;;;;;;;14.36;100.00;102130.84;5024441;28;20056;-64
2023/09/14 04:55:55;;;;;;;8.80;3.90;;;;;;;14.31;100.00;102133.56;5022220;28;20045;-63
2023/09/14 04:58:43;;;;;;;8.57;3.40;;;;;;;14.42;100.00;102137.19;5037035;28;20045;-63
2023/09/14 05:01:32;;;;;;;8.95;2.72;;;;;;;14.58;100.00;102135.44;5051795;28;20501;-64
2023/09/14 05:04:20;;;;;;;7.60;3.30;;;;;;;14.70;100.00;102133.34;5037065;28;20045;-64
2023/09/14 05:07:08;;;;;;;8.52;3.35;;;;;;;14.73;100.00;102131.97;5034635;28;20108;-63
2023/09/14 05:09:56;;;;;;;11.95;3.72;;;;;;;14.72;100.00;102136.66;5044646;28;20053;-62
2023/09/14 05:12:44;;;;;;;11.30;3.72;;;;;;;14.72;100.00;102136.66;5037254;28;20524;-63
2023/09/14 05:15:32;;;;;;;7.18;3.25;;;;;;;14.62;100.00;102139.28;5037434;28;20052;-63
2023/09/14 05:18:20;;;;;;;8.27;3.45;;;;;;;14.61;100.00;102138.47;5017908;28;20049;-63
2023/09/14 05:21:08;;;;;;;7.88;3.13;;;;;;;14.56;100.00;102149.41;5018791;28;20056;-64
2023/09/14 05:23:56;;;;;;;8.27;3.60;;;;;;;14.49;100.00;102141.38;5017261;28;20505;-64
2023/09/14 05:26:47;;;;;;;13.13;3.88;;;;;;;14.47;100.00;102151.75;5033516;28;20168;-63
2023/09/14 05:29:35;;;;;;;7.50;3.50;;;;;;;14.48;100.00;102152.63;5037333;28;20049;-64
2023/09/14 05:32:24;;;;;;;10.75;3.65;;;;;;;14.49;100.00;102159.75;5035770;28;20044;-64
2023/09/14 05:35:12;;;;;;;12.07;3.80;;;;;;;14.50;100.00;102155.91;5051802;28;20501;-62
2023/09/14 05:38:00;;;;;;;9.43;3.75;;;;;;;14.62;100.00;102158.50;5045131;28;20055;-64
2023/09/14 05:40:52;;;;;;;8.57;3.60;;;;;;;14.63;100.00;102161.00;5037139;28;20045;-64
2023/09/14 05:43:40;;;;;;;10.55;4.07;;;;;;;14.59;100.00;102165.34;5035140;28;20493;-63
2023/09/14 05:46:28;;;;;;;7.53;3.70;;;;;;;14.61;100.00;102160.41;5031018;28;20232;-63
2023/09/14 05:49:17;;;;;;;8.82;3.67;;;;;;;14.63;100.00;102163.72;5016095;28;20060;-63
2023/09/14 05:52:06;;;;;;;9.70;3.65;;;;;;;14.67;100.00;102167.63;5031753;28;20046;-63
2023/09/14 05:54:53;;;;;;;10.30;4.00;;;;;;;14.66;100.00;102165.13;5031286;28;20053;-64
2023/09/14 05:57:42;;;;;;;9.77;3.50;;;;;;;14.68;100.00;102168.44;5031476;28;20421;-63
2023/09/14 06:00:30;;;;;;;8.65;3.58;;;;;;;14.61;100.00;102173.31;4682940;28;10000328;-62
2023/09/14 06:03:18;;;;;;;10.60;4.05;;;;;;;14.53;100.00;102171.84;5013354;28;20056;-64
2023/09/14 06:06:06;;;;;;;7.05;3.55;;;;;;;14.51;100.00;102162.22;5042759;28;20131;-64
2023/09/14 06:08:54;;;;;;;11.30;3.63;;;;;;;14.57;100.00;102161.19;5048587;28;20056;-63
2023/09/14 06:11:42;;;;;;;9.55;3.45;;;;;;;14.65;100.00;102171.72;5032687;28;20087;-62
2023/09/14 06:14:32;;;;;;;10.93;3.72;;;;;;;14.67;100.00;102170.34;5033705;28;20527;-62
2023/09/14 06:17:20;;;;;;;12.07;4.45;;;;;;;14.69;100.00;102168.16;5028093;28;20049;-63
2023/09/14 06:20:09;;;;;;;13.00;4.05;;;;;;;14.68;100.00;102165.69;5027304;28;20102;-63
2023/09/14 06:22:57;;;;;;;14.32;4.22;;;;;;;14.77;100.00;102169.59;5027279;28;20417;-64
2023/09/14 06:25:45;;;;;;;9.00;3.72;;;;;;;14.77;100.00;102168.75;5026464;28;20045;-63
2023/09/14 06:28:33;;;;;;;14.27;4.40;;;;;;;14.81;100.00;102158.91;5027185;28;20068;-63
2023/09/14 06:31:22;;;;;;;9.68;3.63;;;;;;;14.85;100.00;102169.09;5022809;28;20049;-61
2023/09/14 06:34:10;;;;;;;9.60;4.18;;;;;;;14.89;100.00;102170.25;5048849;28;20049;-64
2023/09/14 06:36:58;;;;;;;12.45;3.90;;;;;;;14.91;100.00;102172.69;5049796;28;20056;-63
2023/09/14 06:39:46;;;;;;;9.13;4.20;;;;;;;14.97;100.00;102173.59;5036979;28;20200;-63
2023/09/14 06:42:35;;;;;;;11.65;4.22;;;;;;;15.03;100.00;102172.50;5049727;28;20118;-63
2023/09/14 06:45:23;;;;;;;11.52;4.25;;;;;;;15.11;100.00;102177.50;5039037;28;20440;-63
2023/09/14 06:48:11;;;;;;;11.20;4.15;;;;;;;15.16;100.00;102177.53;5054910;28;20135;-62
2023/09/14 06:50:59;;;;;;;11.45;4.30;;;;;;;15.19;100.00;102171.50;5039241;28;20045;-63
2023/09/14 06:53:47;;;;;;;10.60;3.78;;;;;;;15.25;100.00;102170.47;5034876;28;20595;-64
2023/09/14 06:56:35;;;;;;;11.57;4.50;;;;;;;15.28;100.00;102172.66;5049496;28;20128;-64
2023/09/14 06:59:23;;;;;;;16.10;4.97;;;;;;;15.28;100.00;102180.91;5038999;28;20132;-64
2023/09/14 07:02:11;;;;;;;10.23;4.30;;;;;;;15.26;100.00;102179.50;5032740;28;20056;-62
2023/09/14 07:04:59;;;;;;;20.05;5.57;;;;;;;15.29;100.00;102178.97;5028003;28;20074;-63
2023/09/14 07:07:47;;;;;;;17.27;5.45;;;;;;;15.36;100.00;102178.75;5054158;28;20060;-63
2023/09/14 07:10:36;;;;;;;14.73;4.70;;;;;;;15.40;100.00;102190.84;5050056;28;20059;-64
2023/09/14 07:13:24;;;;;;;11.68;3.95;;;;;;;15.41;100.00;102187.00;5038210;28;20624;-65
2023/09/14 07:16:12;;;;;;;15.00;5.45;;;;;;;15.40;100.00;102191.69;5037397;28;20410;-64
2023/09/14 07:19:00;;;;;;;17.45;5.65;;;;;;;15.41;100.00;102187.00;5033429;28;20053;-63
2023/09/14 07:21:48;;;;;;;12.40;4.82;;;;;;;15.42;100.00;102180.44;5033215;28;20513;-62
2023/09/14 07:24:36;;;;;;;13.35;5.63;;;;;;;15.40;100.00;102188.09;5044676;28;20037;-68
2023/09/14 07:27:24;;;;;;;17.92;5.40;;;;;;;15.41;100.00;102187.81;5053619;28;20124;-63
2023/09/14 07:30:14;;;;;;;13.45;5.72;;;;;;;15.43;100.00;102184.81;5041498;28;20060;-63
2023/09/14 07:33:02;;;;;;;13.18;4.80;;;;;;;15.43;100.00;102185.63;5053668;28;20413;-62
2023/09/14 07:35:50;;;;;;;15.00;5.40;;;;;;;15.44;100.00;102189.22;5021138;28;20183;-64
2023/09/14 07:38:38;;;;;;;11.15;4.70;;;;;;;15.47;100.00;102191.44;5019217;28;20084;-64
2023/09/14 07:41:26;;;;;;;12.63;4.70;;;;;;;15.47;100.00;102191.44;5010072;28;20059;-62
2023/09/14 07:44:15;;;;;;;12.52;5.20;;;;;;;15.50;100.00;102191.72;5033315;28;20045;-63
2023/09/14 07:47:03;;;;;;;13.45;5.32;;;;;;;15.56;100.00;102200.78;5034913;28;20060;-64
2023/09/14 07:49:52;;;;;;;13.20;5.28;;;;;;;15.60;100.00;102198.34;5022631;28;20052;-62
2023/09/14 07:52:41;;;;;;;11.07;4.68;;;;;;;15.63;100.00;102195.06;5052582;28;20049;-62
2023/09/14 07:55:29;;;;;;;15.20;5.70;;;;;;;15.66;100.00;102195.38;5047102;28;20204;-64
2023/09/14 07:58:18;;;;;;;13.38;4.93;;;;;;;15.69;100.00;102200.31;5053594;28;20060;-64
2023/09/14 08:01:06;;;;;;;13.82;4.70;;;;;;;15.72;100.00;102199.81;5043275;28;20044;-64
2023/09/14 08:03:54;;;;;;;16.42;5.82;;;;;;;15.75;100.00;102203.94;5039998;28;20510;-64
2023/09/14 08:06:42;;;;;;;13.52;5.32;;;;;;;15.75;100.00;102204.78;5018597;28;20041;-62
2023/09/14 08:09:30;;;;;;;10.68;5.32;;;;;;;15.76;100.00;102203.69;5006771;28;20054;-64
2023/09/14 08:12:18;;;;;;;10.82;4.88;;;;;;;15.76;100.00;102209.19;5036906;28;20135;-64
2023/09/14 08:15:07;;;;;;;9.45;4.43;;;;;;;15.81;100.00;102204.81;5051854;28;20155;-64
2023/09/14 08:17:55;;;;;;;13.00;4.35;;;;;;;15.88;100.00;102203.44;5051895;28;20053;-62
2023/09/14 08:20:43;;;;;;;17.30;5.50;;;;;;;15.91;100.00;102202.06;5023323;28;20128;-63
2023/09/14 08:23:32;;;;;;;11.30;4.65;;;;;;;15.97;100.00;102199.06;5047546;28;20084;-63
2023/09/14 08:26:21;;;;;;;10.85;4.50;;;;;;;15.96;100.00;102193.84;5051493;28;20076;-61
2023/09/14 08:29:08;;;;;;;11.50;4.88;;;;;;;15.99;100.00;102193.28;5052753;28;20513;-63
2023/09/14 08:31:57;;;;;;;11.40;5.57;;;;;;;15.99;100.00;102198.78;5051477;28;20374;-62
2023/09/14 08:34:45;;;;;;;8.23;4.28;;;;;;;16.01;100.00;102193.84;5035450;28;20501;-63
2023/09/14 08:37:33;;;;;;;12.10;4.88;;;;;;;16.06;100.00;102198.53;5051925;28;20142;-63
2023/09/14 08:40:23;;;;;;;10.57;4.50;;;;;;;16.07;100.00;102198.28;5050674;28;20053;-63
2023/09/14 08:43:12;;;;;;;10.95;4.32;;;;;;;16.11;100.00;102202.13;5052122;28;20400;-63
2023/09/14 08:46:01;;;;;;;16.83;6.22;;;;;;;16.12;100.00;102198.28;5024419;28;20078;-63
2023/09/14 08:48:51;;;;;;;13.00;5.03;;;;;;;16.14;100.00;102206.28;5037509;28;20041;-63
2023/09/14 08:51:40;;;;;;;24.75;7.78;;;;;;;16.15;100.00;102199.66;5052214;28;20199;-64
2023/09/14 08:54:29;;;;;;;23.80;8.18;;;;;;;16.14;100.00;102207.09;5024797;28;20068;-64
2023/09/14 08:57:17;;;;;;;19.15;6.07;;;;;;;16.18;100.00;102202.69;5036789;28;20187;-62
2023/09/14 09:00:15;;;;;;;19.77;8.40;;;;;;;16.23;100.00;102206.56;5040425;28;20041;-64
2023/09/14 09:03:03;;;;;;;25.08;8.70;;;;;;;16.26;100.00;102200.50;5047611;28;20045;-63
2023/09/14 09:05:51;;;;;;;15.10;7.38;;;;;;;16.29;100.00;102197.22;5051608;28;20060;-63
2023/09/14 09:08:39;;;;;;;17.45;6.88;;;;;;;16.38;100.00;102190.09;5038384;28;20539;-62
2023/09/14 09:11:29;;;;;;;16.75;7.47;;;;;;;16.41;100.00;102189.53;5022076;28;20190;-63
2023/09/14 09:14:17;;;;;;;15.40;7.90;;;;;;;16.41;100.00;102195.03;5052448;28;20130;-61
2023/09/14 09:17:05;;;;;;;13.35;7.35;;;;;;;16.44;100.00;102191.72;5036867;28;20115;-62
2023/09/14 09:19:54;;;;;;;21.02;7.00;;;;;;;16.50;100.00;102184.28;5036494;28;20048;-61
2023/09/14 09:22:45;;;;;;;17.90;8.10;;;;;;;16.51;100.00;102194.22;5051088;28;20047;-61
2023/09/14 09:25:50;;;;;;;15.40;8.00;;;;;;;16.51;100.00;102195.03;5036062;28;20524;-62
2023/09/14 09:28:47;;;;;;;16.95;8.52;;;;;;;16.51;100.00;102184.03;5036823;28;20477;-62
2023/09/14 09:31:42;;;;;;;13.30;5.95;;;;;;;16.62;100.00;102193.13;5035900;28;20489;-61
2023/09/14 09:34:31;;;;;;;;;;;;;;;16.66;100.00;102187.88;5051848;28;20131;-61
2023/09/14 09:37:20;;;;;;;16.90;8.82;;;;;;;16.69;100.00;102190.06;5050120;28;19971;-62
2023/09/14 09:40:20;;;;;;;15.30;8.63;;;;;;;16.80;100.00;102186.25;5037396;28;20076;-63
2023/09/14 09:43:09;;;;;;;12.85;6.97;;;;;;;16.90;100.00;102185.41;5052535;28;20053;-62
2023/09/14 09:45:57;;;;;;;17.25;9.40;;;;;;;16.89;100.00;102184.59;5038691;28;20048;-61
2023/09/14 09:48:45;;;;;;;20.38;10.70;;;;;;;16.85;100.00;102191.75;5036178;28;20052;-63
2023/09/14 09:51:34;;;;;;;16.15;8.82;;;;;;;16.87;100.00;102181.28;5030776;28;20199;-62
2023/09/14 09:54:24;;;;;;;16.17;9.88;;;;;;;16.95;100.00;102177.97;5030485;28;20053;-62
2023/09/14 09:57:13;;;;;;;11.80;6.78;;;;;;;16.94;100.00;102181.84;4333051;28;10000553;-63
2023/09/14 10:00:12;;;;;;;11.75;7.05;;;;;;;16.96;100.00;102171.38;5040649;28;20045;-63
2023/09/14 10:03:01;;;;;;;16.08;9.20;;;;;;;17.00;100.00;102172.47;5033216;28;20067;-63
2023/09/14 10:05:50;;;;;;;16.52;9.52;;;;;;;17.04;100.00;102170.78;5047980;28;20044;-64
2023/09/14 10:08:38;;;;;;;15.95;9.43;;;;;;;17.11;100.00;102178.78;5045493;28;20131;-63
2023/09/14 10:11:27;;;;;;;11.82;6.03;;;;;;;17.21;100.00;102169.66;5045737;28;20084;-63
2023/09/14 10:14:18;;;;;;;12.68;6.25;;;;;;;17.29;100.00;102174.56;5048600;28;20163;-64
2023/09/14 10:17:08;;;;;;;10.43;5.93;;;;;;;17.37;100.00;102174.00;5036802;28;20052;-63
2023/09/14 10:19:59;;;;;;;12.90;6.90;;;;;;;17.37;100.00;102168.50;5051774;28;20056;-62
2023/09/14 10:22:47;;;;;;;15.95;7.78;;;;;;;17.37;98.31;102167.69;5035051;28;20128;-63
2023/09/14 10:25:35;;;;;;;15.30;7.78;;;;;;;17.35;99.66;102165.19;5050983;28;20131;-64
2023/09/14 10:28:24;;;;;;;12.23;6.40;;;;;;;17.31;99.53;102164.09;5048405;28;20052;-62
2023/09/14 10:31:14;;;;;;;13.93;7.70;;;;;;;17.33;97.00;102161.09;5022861;28;20094;-63
2023/09/14 10:34:04;;;;;;;10.38;5.68;;;;;;;17.39;97.01;102165.44;5036148;28;20049;-64
2023/09/14 10:36:53;;;;;;;12.30;5.80;;;;;;;17.45;90.49;102159.66;5041062;28;20041;-63
2023/09/14 10:39:41;;;;;;;8.15;3.95;;;;;;;17.57;91.14;102155.75;5031334;28;20053;-63
2023/09/14 10:42:29;;;;;;;10.65;5.82;;;;;;;17.71;90.58;102150.44;5017472;28;20113;-63
2023/09/14 10:45:19;;;;;;;8.60;4.05;;;;;;;17.83;98.18;102157.28;5018192;28;20042;-63
2023/09/14 10:48:10;;;;;;;7.15;3.92;;;;;;;17.94;94.93;102154.47;5046815;28;20398;-63
2023/09/14 10:50:59;;;;;;;12.45;6.13;;;;;;;17.85;85.12;102146.00;5052766;28;20053;-63
2023/09/14 10:53:47;;;;;;;11.13;5.25;;;;;;;17.80;83.32;102143.25;5022896;28;20049;-63
2023/09/14 10:56:35;;;;;;;9.18;4.65;;;;;;;17.77;83.69;102138.28;5033971;28;20130;-62
2023/09/14 10:59:46;;;;;;;10.98;4.75;;;;;;;17.77;88.83;102133.56;5050500;28;20094;-63
2023/09/14 11:02:42;;;;;;;10.85;5.22;;;;;;;17.78;89.75;102135.25;5030947;28;20147;-62
2023/09/14 11:05:42;;;;;;;12.98;5.65;;;;;;;17.80;90.94;102133.06;5031123;28;20060;-66
2023/09/14 11:09:00;;;;;;;10.93;5.25;;;;;;;17.82;88.57;102133.59;5017031;28;20501;-63
2023/09/14 11:11:51;;;;;;;10.15;5.15;;;;;;;17.92;84.23;102140.13;5038577;28;20080;-63
2023/09/14 11:15:10;;;;;;;15.15;5.50;;;;;;;17.93;79.96;102131.59;5048767;28;20164;-62
2023/09/14 11:17:58;;;;;;;9.25;5.13;;;;;;;17.95;80.86;102134.06;5032524;28;20190;-63
2023/09/14 11:20:48;;;;;;;10.40;4.30;;;;;;;18.03;88.55;102133.47;5018342;28;20053;-65
2023/09/14 11:23:38;;;;;;;9.07;4.78;;;;;;;18.04;91.49;102132.38;5034440;28;20453;-63
2023/09/14 11:26:34;;;;;;;10.90;5.28;;;;;;;18.01;87.31;102130.16;5039131;28;20049;-64
2023/09/14 11:29:26;;;;;;;10.20;4.72;;;;;;;17.98;86.25;102139.00;5027159;28;20065;-63
2023/09/14 11:32:21;;;;;;;9.40;4.60;;;;;;;17.97;85.84;102138.19;5036355;28;20041;-63
2023/09/14 11:35:13;;;;;;;9.25;4.78;;;;;;;18.04;87.23;102135.94;5021700;28;20058;-61
2023/09/14 11:38:03;;;;;;;8.07;4.55;;;;;;;18.20;93.53;102133.88;5034613;28;20057;-64
2023/09/14 11:40:55;;;;;;;9.15;4.72;;;;;;;18.16;88.96;102131.97;5020081;28;20045;-64
2023/09/14 11:44:04;;;;;;;11.70;5.85;;;;;;;18.15;82.75;102133.91;5017549;28;20049;-63
2023/09/14 11:46:58;;;;;;;13.55;6.28;;;;;;;18.18;82.31;102138.84;5027880;28;20464;-63
2023/09/14 11:49:57;;;;;;;8.93;4.50;;;;;;;18.23;82.82;102130.56;5034634;28;20049;-62
2023/09/14 11:52:46;;;;;;;10.93;5.47;;;;;;;18.31;83.62;102129.94;5021500;28;20600;-64
2023/09/14 11:55:34;;;;;;;6.80;3.72;;;;;;;18.42;88.81;102127.09;5032998;28;20081;-63
2023/09/14 11:58:23;;;;;;;8.07;3.95;;;;;;;18.63;96.26;102136.81;5017994;28;20051;-65
2023/09/14 12:01:12;;;;;;;9.98;4.45;;;;;;;18.58;89.74;102136.06;5038955;28;20160;-63
2023/09/14 12:04:03;;;;;;;9.25;4.60;;;;;;;18.55;88.86;102128.38;5052928;28;20049;-64
2023/09/14 12:06:51;;;;;;;9.77;5.20;;;;;;;18.49;82.36;102124.81;5036829;28;20076;-64
2023/09/14 12:09:40;;;;;;;7.15;3.97;;;;;;;18.53;87.24;102131.41;5053942;28;20045;-63
2023/09/14 12:12:30;;;;;;;7.07;3.90;;;;;;;18.55;78.10;102120.09;5035204;28;20053;-64
2023/09/14 12:15:19;;;;;;;5.72;3.45;;;;;;;18.63;80.78;102122.22;5018463;28;20068;-64
2023/09/14 12:18:07;;;;;;;8.38;4.20;;;;;;;18.73;81.70;102125.69;5018851;28;20104;-63
2023/09/14 12:20:55;;;;;;;9.75;4.10;;;;;;;18.68;74.75;102122.97;5034457;28;20049;-63
2023/09/14 12:23:46;;;;;;;10.38;4.43;;;;;;;18.67;73.77;102124.09;5020660;28;20049;-63
2023/09/14 12:26:35;;;;;;;10.15;4.18;;;;;;;18.67;73.79;102121.34;5019901;28;20077;-64
2023/09/14 12:29:25;;;;;;;7.90;3.72;;;;;;;18.73;78.58;102116.56;5044081;28;20056;-65
2023/09/14 12:32:13;;;;;;;8.38;4.15;;;;;;;18.81;82.20;102106.84;5052090;28;20191;-63
2023/09/14 12:35:04;;;;;;;11.70;5.30;;;;;;;18.81;78.15;102112.38;5053863;28;20056;-64
2023/09/14 12:37:53;;;;;;;9.27;4.85;;;;;;;18.77;77.44;102108.59;5037098;28;20045;-64
2023/09/14 12:40:41;;;;;;;9.88;5.00;;;;;;;18.78;78.63;102102.75;5021866;28;20041;-64
2023/09/14 12:43:29;;;;;;;7.55;4.00;;;;;;;18.86;80.08;102109.59;5038329;28;20126;-62
2023/09/14 12:46:17;;;;;;;9.20;4.43;;;;;;;18.88;77.74;102101.81;5033136;28;20037;-63
2023/09/14 12:49:06;;;;;;;5.93;3.67;;;;;;;18.91;79.85;102107.59;5051027;28;20528;-63
2023/09/14 12:51:54;;;;;;;10.45;4.43;;;;;;;18.97;79.44;102100.06;5037354;28;20521;-63
2023/09/14 12:54:42;;;;;;;6.93;3.83;;;;;;;19.04;83.28;102095.00;5018665;28;20405;-64
2023/09/14 12:57:35;;;;;;;9.68;4.90;;;;;;;18.97;77.65;102094.53;5039465;28;20511;-63